sensor_id;sensor_type;location;lat;lon;timestamp;pressure;altitude;pressure_sealevel;temperature;humidity
19748;BME280;10032;51.386;12.516;2023-03-24T00:00:45;99214.41;;;12.47;100.00
19748;BME280;10032;51.386;12.516;2023-03-24T00:03:10;99212.44;;;12.52;100.00
19748;BME280;10032;51.386;12.516;2023-03-24T00:05:36;99213.56;;;12.51;100.00
19748;BME280;10032;51.386;12.516;2023-03-24T00:08:03;99213.28;;;12.53;100.00
19748;BME280;10032;51.386;12.516;2023-03-24T00:10:29;99200.47;;;12.53;100.00
19748;BME280;10032;51.386;12.516;2023-03-24T00:12:59;99207.00;;;12.52;100.00
19748;BME280;10032;51.386;12.516;2023-03-24T00:15:25;99210.59;;;12.48;100.00
19748;BME280;10032;51.386;12.516;2023-03-24T00:17:52;99202.97;;;12.50;100.00
19748;BME280;10032;51.386;12.516;2023-03-24T00:20:21;99192.91;;;12.50;100.00
19748;BME280;10032;51.386;12.516;2023-03-24T00:22:49;99196.97;;;12.53;100.00
19748;BME280;10032;51.386;12.516;2023-03-24T00:25:20;99182.78;;;12.56;100.00
19748;BME280;10032;51.386;12.516;2023-03-24T00:27:52;99188.53;;;12.54;100.00
19748;BME280;10032;51.386;12.516;2023-03-24T00:30:19;99180.06;;;12.56;100.00
19748;BME280;10032;51.386;12.516;2023-03-24T00:32:45;99176.28;;;12.57;100.00
19748;BME280;10032;51.386;12.516;2023-03-24T00:35:13;99171.66;;;12.57;100.00
19748;BME280;10032;51.386;12.516;2023-03-24T00:37:40;99164.88;;;12.55;100.00
19748;BME280;10032;51.386;12.516;2023-03-24T00:40:09;99165.16;;;12.53;100.00
19748;BME280;10032;51.386;12.516;2023-03-24T00:42:38;99157.00;;;12.53;100.00
19748;BME280;10032;51.386;12.516;2023-03-24T00:45:05;99153.22;;;12.54;100.00
19748;BME280;10032;51.386;12.516;2023-03-24T00:47:32;99145.28;;;12.58;100.00
19748;BME280;10032;51.386;12.516;2023-03-24T00:50:13;99147.72;;;12.59;100.00
19748;BME280;10032;51.386;12.516;2023-03-24T00:52:40;99149.34;;;12.60;100.00
19748;BME280;10032;51.386;12.516;2023-03-24T00:55:10;99138.47;;;12.60;100.00
19748;BME280;10032;51.386;12.516;2023-03-24T00:57:40;99132.22;;;12.60;100.00
19748;BME280;10032;51.386;12.516;2023-03-24T01:00:07;99131.94;;;12.61;100.00
19748;BME280;10032;51.386;12.516;2023-03-24T01:02:45;99122.69;;;12.62;100.00
19748;BME280;10032;51.386;12.516;2023-03-24T01:05:11;99114.53;;;12.62;100.00
19748;BME280;10032;51.386;12.516;2023-03-24T01:07:38;99118.88;;;12.63;100.00
19748;BME280;10032;51.386;12.516;2023-03-24T01:10:15;99113.97;;;12.65;100.00
19748;BME280;10032;51.386;12.516;2023-03-24T01:12:41;99104.72;;;12.66;100.00
19748;BME280;10032;51.386;12.516;2023-03-24T01:15:11;99106.91;;;12.64;100.00
19748;BME280;10032;51.386;12.516;2023-03-24T01:17:37;99102.28;;;12.65;100.00
19748;BME280;10032;51.386;12.516;2023-03-24T01:20:03;99098.78;;;12.64;100.00
19748;BME280;10032;51.386;12.516;2023-03-24T01:22:33;99091.13;;;12.66;100.00
19748;BME280;10032;51.386;12.516;2023-03-24T01:25:03;99096.78;;;12.70;100.00
19748;BME280;10032;51.386;12.516;2023-03-24T01:27:29;99103.03;;;12.70;100.00
19748;BME280;10032;51.386;12.516;2023-03-24T01:29:59;99099.28;;;12.66;100.00
19748;BME280;10032;51.386;12.516;2023-03-24T01:32:25;99100.88;;;12.67;100.00
19748;BME280;10032;51.386;12.516;2023-03-24T01:34:50;99100.09;;;12.67;100.00
19748;BME280;10032;51.386;12.516;2023-03-24T01:37:15;99102.00;;;12.66;100.00
19748;BME280;10032;51.386;12.516;2023-03-24T01:39:41;99105.22;;;12.68;100.00
19748;BME280;10032;51.386;12.516;2023-03-24T01:42:15;99103.88;;;12.66;100.00
19748;BME280;10032;51.386;12.516;2023-03-24T01:44:42;99097.13;;;12.63;100.00
19748;BME280;10032;51.386;12.516;2023-03-24T01:47:07;99090.34;;;12.61;100.00
19748;BME280;10032;51.386;12.516;2023-03-24T01:49:41;99086.84;;;12.60;100.00
19748;BME280;10032;51.386;12.516;2023-03-24T01:52:13;99078.69;;;12.60;100.00
19748;BME280;10032;51.386;12.516;2023-03-24T01:55:10;99071.88;;;12.63;100.00
19748;BME280;10032;51.386;12.516;2023-03-24T01:57:42;99060.72;;;12.64;100.00
19748;BME280;10032;51.386;12.516;2023-03-24T02:00:27;99058.00;;;12.64;100.00
19748;BME280;10032;51.386;12.516;2023-03-24T02:03:06;99059.63;;;12.65;100.00
19748;BME280;10032;51.386;12.516;2023-03-24T02:05:36;99054.41;;;12.69;100.00
19748;BME280;10032;51.386;12.516;2023-03-24T02:08:20;99048.91;;;12.74;100.00
19748;BME280;10032;51.386;12.516;2023-03-24T02:10:48;99039.38;;;12.76;100.00
19748;BME280;10032;51.386;12.516;2023-03-24T02:13:15;99048.25;;;12.82;100.00
19748;BME280;10032;51.386;12.516;2023-03-24T02:15:58;99044.69;;;12.86;100.00
19748;BME280;10032;51.386;12.516;2023-03-24T02:18:47;99042.97;;;12.90;100.00
19748;BME280;10032;51.386;12.516;2023-03-24T02:21:53;99040.50;;;12.94;100.00
19748;BME280;10032;51.386;12.516;2023-03-24T02:41:53;99034.38;;;13.07;100.00
19748;BME280;10032;51.386;12.516;2023-03-24T02:44:56;99031.94;;;13.05;100.00
19748;BME280;10032;51.386;12.516;2023-03-24T02:50:09;99032.53;;;13.02;100.00
19748;BME280;10032;51.386;12.516;2023-03-24T02:55:32;99033.72;;;12.96;100.00
19748;BME280;10032;51.386;12.516;2023-03-24T02:58:14;99025.00;;;12.94;100.00
19748;BME280;10032;51.386;12.516;2023-03-24T03:06:00;99009.06;;;12.88;100.00
19748;BME280;10032;51.386;12.516;2023-03-24T03:08:29;99013.69;;;12.87;100.00
19748;BME280;10032;51.386;12.516;2023-03-24T03:10:58;99007.41;;;12.87;100.00
19748;BME280;10032;51.386;12.516;2023-03-24T03:13:33;98990.81;;;12.88;100.00
19748;BME280;10032;51.386;12.516;2023-03-24T03:16:07;98998.19;;;12.88;100.00
19748;BME280;10032;51.386;12.516;2023-03-24T03:21:07;98990.88;;;12.83;100.00
19748;BME280;10032;51.386;12.516;2023-03-24T03:23:38;98997.72;;;12.81;100.00
19748;BME280;10032;51.386;12.516;2023-03-24T03:26:08;98990.94;;;12.78;100.00
19748;BME280;10032;51.386;12.516;2023-03-24T03:28:39;98991.50;;;12.80;100.00
19748;BME280;10032;51.386;12.516;2023-03-24T03:31:18;98986.84;;;12.81;100.00
19748;BME280;10032;51.386;12.516;2023-03-24T03:37:19;98996.09;;;12.80;100.00
19748;BME280;10032;51.386;12.516;2023-03-24T03:39:48;98980.91;;;12.79;100.00
19748;BME280;10032;51.386;12.516;2023-03-24T03:42:17;98968.09;;;12.79;100.00
19748;BME280;10032;51.386;12.516;2023-03-24T03:44:43;98974.66;;;12.78;100.00
19748;BME280;10032;51.386;12.516;2023-03-24T03:47:08;98965.38;;;12.79;100.00
19748;BME280;10032;51.386;12.516;2023-03-24T03:49:35;98972.75;;;12.79;100.00
19748;BME280;10032;51.386;12.516;2023-03-24T03:52:01;98963.78;;;12.78;100.00
19748;BME280;10032;51.386;12.516;2023-03-24T03:54:27;98968.41;;;12.78;100.00
19748;BME280;10032;51.386;12.516;2023-03-24T03:56:55;98972.53;;;12.75;100.00
19748;BME280;10032;51.386;12.516;2023-03-24T03:59:27;98972.53;;;12.75;100.00
19748;BME280;10032;51.386;12.516;2023-03-24T04:01:53;98974.13;;;12.76;100.00
19748;BME280;10032;51.386;12.516;2023-03-24T04:10:15;98961.06;;;12.78;100.00
19748;BME280;10032;51.386;12.516;2023-03-24T04:13:01;98967.03;;;12.80;100.00
19748;BME280;10032;51.386;12.516;2023-03-24T04:15:39;98960.47;;;12.81;100.00
19748;BME280;10032;51.386;12.516;2023-03-24T04:33:25;98943.81;;;12.88;100.00
19748;BME280;10032;51.386;12.516;2023-03-24T04:36:02;98929.91;;;12.89;100.00
19748;BME280;10032;51.386;12.516;2023-03-24T04:38:31;98931.75;;;12.94;100.00
19748;BME280;10032;51.386;12.516;2023-03-24T04:41:01;98921.19;;;12.92;100.00
19748;BME280;10032;51.386;12.516;2023-03-24T04:43:30;98927.13;;;12.94;100.00
19748;BME280;10032;51.386;12.516;2023-03-24T04:46:02;98935.28;;;12.94;100.00
19748;BME280;10032;51.386;12.516;2023-03-24T04:48:29;98922.50;;;12.95;100.00
19748;BME280;10032;51.386;12.516;2023-03-24T04:50:57;98912.97;;;12.97;100.00
19748;BME280;10032;51.386;12.516;2023-03-24T04:53:24;98912.97;;;12.97;100.00
19748;BME280;10032;51.386;12.516;2023-03-24T04:58:20;98908.03;;;12.99;100.00
19748;BME280;10032;51.386;12.516;2023-03-24T05:00:45;98910.19;;;13.02;100.00
19748;BME280;10032;51.386;12.516;2023-03-24T05:03:12;98906.34;;;13.03;100.00
19748;BME280;10032;51.386;12.516;2023-03-24T05:05:43;98895.97;;;13.05;100.00
19748;BME280;10032;51.386;12.516;2023-03-24T05:08:09;98890.25;;;13.07;100.00
19748;BME280;10032;51.386;12.516;2023-03-24T05:10:35;98887.81;;;13.05;100.00
19748;BME280;10032;51.386;12.516;2023-03-24T05:13:02;98883.69;;;13.08;100.00
19748;BME280;10032;51.386;12.516;2023-03-24T05:15:27;98879.09;;;13.08;100.00
19748;BME280;10032;51.386;12.516;2023-03-24T05:17:53;98877.47;;;13.07;100.00
19748;BME280;10032;51.386;12.516;2023-03-24T05:20:19;98880.69;;;13.09;100.00
19748;BME280;10032;51.386;12.516;2023-03-24T05:22:44;98873.66;;;13.08;100.00
19748;BME280;10032;51.386;12.516;2023-03-24T05:25:10;98875.25;;;13.09;100.00
19748;BME280;10032;51.386;12.516;2023-03-24T05:27:36;98875.75;;;13.11;100.00
19748;BME280;10032;51.386;12.516;2023-03-24T05:30:03;98877.97;;;13.09;100.00
19748;BME280;10032;51.386;12.516;2023-03-24T05:32:29;98870.84;;;13.13;100.00
19748;BME280;10032;51.386;12.516;2023-03-24T05:34:54;98884.44;;;13.13;100.00
19748;BME280;10032;51.386;12.516;2023-03-24T05:37:20;98877.59;;;13.16;100.00
19748;BME280;10032;51.386;12.516;2023-03-24T05:39:45;98876.19;;;13.18;100.00
19748;BME280;10032;51.386;12.516;2023-03-24T05:42:11;98880.53;;;13.19;100.00
19748;BME280;10032;51.386;12.516;2023-03-24T05:44:36;98879.94;;;13.22;100.00
19748;BME280;10032;51.386;12.516;2023-03-24T05:47:02;98872.28;;;13.24;100.00
19748;BME280;10032;51.386;12.516;2023-03-24T05:49:28;98872.28;;;13.24;100.00
19748;BME280;10032;51.386;12.516;2023-03-24T05:51:53;98861.13;;;13.26;100.00
19748;BME280;10032;51.386;12.516;2023-03-24T05:54:20;98860.59;;;13.24;100.00
19748;BME280;10032;51.386;12.516;2023-03-24T05:56:46;98854.56;;;13.27;100.00
19748;BME280;10032;51.386;12.516;2023-03-24T05:59:11;98857.78;;;13.29;100.00
19748;BME280;10032;51.386;12.516;2023-03-24T06:01:37;98854.47;;;13.32;100.00
19748;BME280;10032;51.386;12.516;2023-03-24T06:04:03;98850.34;;;13.34;100.00
19748;BME280;10032;51.386;12.516;2023-03-24T06:06:29;98850.94;;;13.31;100.00
19748;BME280;10032;51.386;12.516;2023-03-24T06:08:55;98848.13;;;13.36;100.00
19748;BME280;10032;51.386;12.516;2023-03-24T06:11:22;98849.72;;;13.37;100.00
19748;BME280;10032;51.386;12.516;2023-03-24T06:13:48;98838.25;;;13.40;100.00
19748;BME280;10032;51.386;12.516;2023-03-24T06:16:13;98840.69;;;13.42;100.00
19748;BME280;10032;51.386;12.516;2023-03-24T06:18:39;98837.69;;;13.43;100.00
19748;BME280;10032;51.386;12.516;2023-03-24T06:21:06;98845.53;;;13.45;100.00
19748;BME280;10032;51.386;12.516;2023-03-24T06:23:32;98834.84;;;13.48;100.00
19748;BME280;10032;51.386;12.516;2023-03-24T06:25:59;98831.03;;;13.49;100.00
19748;BME280;10032;51.386;12.516;2023-03-24T06:28:26;98837.47;;;13.53;100.00
19748;BME280;10032;51.386;12.516;2023-03-24T06:30:55;98834.16;;;13.56;100.00
19748;BME280;10032;51.386;12.516;2023-03-24T06:33:21;98836.28;;;13.59;100.00
19748;BME280;10032;51.386;12.516;2023-03-24T06:35:50;98829.44;;;13.62;100.00
19748;BME280;10032;51.386;12.516;2023-03-24T06:38:16;98825.31;;;13.64;100.00
19748;BME280;10032;51.386;12.516;2023-03-24T06:40:42;98820.56;;;13.70;100.00
19748;BME280;10032;51.386;12.516;2023-03-24T06:43:07;98824.97;;;13.79;100.00
19748;BME280;10032;51.386;12.516;2023-03-24T06:45:33;98814.50;;;13.86;100.00
19748;BME280;10032;51.386;12.516;2023-03-24T06:47:58;98817.31;;;13.95;100.00
19748;BME280;10032;51.386;12.516;2023-03-24T06:50:24;98805.03;;;13.97;100.00
19748;BME280;10032;51.386;12.516;2023-03-24T06:52:58;98795.16;;;14.01;100.00
19748;BME280;10032;51.386;12.516;2023-03-24T06:55:24;98797.72;;;14.06;100.00
19748;BME280;10032;51.386;12.516;2023-03-24T06:57:49;98799.84;;;14.09;100.00
19748;BME280;10032;51.386;12.516;2023-03-24T07:00:15;98803.59;;;14.13;100.00
19748;BME280;10032;51.386;12.516;2023-03-24T07:02:40;98803.47;;;14.18;100.00
19748;BME280;10032;51.386;12.516;2023-03-24T07:05:07;98804.50;;;14.22;100.00
19748;BME280;10032;51.386;12.516;2023-03-24T07:07:35;98813.97;;;14.25;100.00
19748;BME280;10032;51.386;12.516;2023-03-24T07:10:02;98809.81;;;14.27;100.00
19748;BME280;10032;51.386;12.516;2023-03-24T07:12:27;98802.56;;;14.36;100.00
19748;BME280;10032;51.386;12.516;2023-03-24T07:14:53;98801.66;;;14.41;100.00
19748;BME280;10032;51.386;12.516;2023-03-24T07:17:20;98806.16;;;14.45;100.00
19748;BME280;10032;51.386;12.516;2023-03-24T07:19:45;98811.63;;;14.45;100.00
19748;BME280;10032;51.386;12.516;2023-03-24T07:22:11;98807.28;;;14.44;100.00
19748;BME280;10032;51.386;12.516;2023-03-24T07:24:36;98793.03;;;14.47;100.00
19748;BME280;10032;51.386;12.516;2023-03-24T07:27:02;98787.75;;;14.51;100.00
19748;BME280;10032;51.386;12.516;2023-03-24T07:29:28;98797.25;;;14.53;100.00
19748;BME280;10032;51.386;12.516;2023-03-24T07:31:53;98810.16;;;14.61;100.00
19748;BME280;10032;51.386;12.516;2023-03-24T07:34:23;98805.69;;;14.65;100.00
19748;BME280;10032;51.386;12.516;2023-03-24T07:36:49;98804.47;;;14.71;100.00
19748;BME280;10032;51.386;12.516;2023-03-24T07:39:15;98825.22;;;14.81;100.00
19748;BME280;10032;51.386;12.516;2023-03-24T07:41:41;98814.25;;;14.94;100.00
19748;BME280;10032;51.386;12.516;2023-03-24T07:44:07;98829.13;;;15.10;100.00
19748;BME280;10032;51.386;12.516;2023-03-24T07:46:33;98811.06;;;15.23;100.00
19748;BME280;10032;51.386;12.516;2023-03-24T07:48:59;98810.94;;;15.28;100.00
19748;BME280;10032;51.386;12.516;2023-03-24T07:51:24;98800.41;;;15.35;100.00
19748;BME280;10032;51.386;12.516;2023-03-24T07:53:50;98800.09;;;15.36;100.00
19748;BME280;10032;51.386;12.516;2023-03-24T07:56:15;98793.19;;;15.39;100.00
19748;BME280;10032;51.386;12.516;2023-03-24T07:58:41;98793.38;;;15.42;100.00
19748;BME280;10032;51.386;12.516;2023-03-24T08:01:07;98791.75;;;15.41;100.00
19748;BME280;10032;51.386;12.516;2023-03-24T08:03:36;98795.31;;;15.42;100.00
19748;BME280;10032;51.386;12.516;2023-03-24T08:06:02;98795.50;;;15.45;100.00
19748;BME280;10032;51.386;12.516;2023-03-24T08:08:29;98788.28;;;15.49;100.00
19748;BME280;10032;51.386;12.516;2023-03-24T08:10:56;98792.47;;;15.55;100.00
19748;BME280;10032;51.386;12.516;2023-03-24T08:13:21;98794.56;;;15.58;100.00
19748;BME280;10032;51.386;12.516;2023-03-24T08:15:47;98781.44;;;15.60;100.00
19748;BME280;10032;51.386;12.516;2023-03-24T08:18:12;98775.63;;;15.62;100.00
19748;BME280;10032;51.386;12.516;2023-03-24T08:20:38;98802.94;;;15.62;100.00
19748;BME280;10032;51.386;12.516;2023-03-24T08:23:03;98801.50;;;15.64;100.00
19748;BME280;10032;51.386;12.516;2023-03-24T08:25:31;98796.41;;;15.71;100.00
19748;BME280;10032;51.386;12.516;2023-03-24T08:27:59;98818.09;;;15.76;100.00
19748;BME280;10032;51.386;12.516;2023-03-24T08:30:25;98821.00;;;15.80;100.00
19748;BME280;10032;51.386;12.516;2023-03-24T08:32:58;98830.66;;;15.86;100.00
19748;BME280;10032;51.386;12.516;2023-03-24T08:35:27;98819.91;;;15.89;100.00
19748;BME280;10032;51.386;12.516;2023-03-24T08:37:53;98830.22;;;15.92;100.00
19748;BME280;10032;51.386;12.516;2023-03-24T08:40:21;98838.28;;;15.97;100.00
19748;BME280;10032;51.386;12.516;2023-03-24T08:42:56;98842.00;;;16.10;100.00
19748;BME280;10032;51.386;12.516;2023-03-24T08:45:24;98845.69;;;16.14;100.00
19748;BME280;10032;51.386;12.516;2023-03-24T08:48:09;98853.13;;;16.22;100.00
19748;BME280;10032;51.386;12.516;2023-03-24T08:50:40;98847.97;;;16.20;100.00
19748;BME280;10032;51.386;12.516;2023-03-24T08:53:06;98845.09;;;16.25;100.00
19748;BME280;10032;51.386;12.516;2023-03-24T08:55:32;98848.97;;;16.33;100.00
19748;BME280;10032;51.386;12.516;2023-03-24T08:57:58;98851.75;;;16.41;100.00
19748;BME280;10032;51.386;12.516;2023-03-24T09:00:24;98843.53;;;16.41;100.00
19748;BME280;10032;51.386;12.516;2023-03-24T09:02:51;98856.44;;;16.49;100.00
19748;BME280;10032;51.386;12.516;2023-03-24T09:05:19;98850.97;;;16.58;100.00
19748;BME280;10032;51.386;12.516;2023-03-24T09:07:45;98859.50;;;16.73;100.00
19748;BME280;10032;51.386;12.516;2023-03-24T09:10:12;98849.69;;;16.89;100.00
19748;BME280;10032;51.386;12.516;2023-03-24T09:12:38;98863.53;;;17.01;100.00
19748;BME280;10032;51.386;12.516;2023-03-24T09:15:06;98850.97;;;17.00;100.00
19748;BME280;10032;51.386;12.516;2023-03-24T09:17:32;98850.97;;;17.09;100.00
19748;BME280;10032;51.386;12.516;2023-03-24T09:19:58;98848.53;;;17.24;100.00
19748;BME280;10032;51.386;12.516;2023-03-24T09:22:23;98849.00;;;17.26;100.00
19748;BME280;10032;51.386;12.516;2023-03-24T09:24:49;98836.13;;;17.44;100.00
19748;BME280;10032;51.386;12.516;2023-03-24T09:27:32;98841.13;;;17.42;100.00
19748;BME280;10032;51.386;12.516;2023-03-24T09:30:01;98852.53;;;17.35;100.00
19748;BME280;10032;51.386;12.516;2023-03-24T09:35:29;98844.50;;;17.47;100.00
19748;BME280;10032;51.386;12.516;2023-03-24T09:37:54;98854.06;;;17.70;100.00
19748;BME280;10032;51.386;12.516;2023-03-24T09:40:27;98856.13;;;17.82;100.00
19748;BME280;10032;51.386;12.516;2023-03-24T09:42:59;98852.56;;;17.90;100.00
19748;BME280;10032;51.386;12.516;2023-03-24T09:45:26;98855.91;;;17.95;100.00
19748;BME280;10032;51.386;12.516;2023-03-24T09:47:56;98850.09;;;18.26;100.00
19748;BME280;10032;51.386;12.516;2023-03-24T09:50:33;98849.88;;;18.48;100.00
19748;BME280;10032;51.386;12.516;2023-03-24T09:53:06;98850.47;;;18.53;100.00
19748;BME280;10032;51.386;12.516;2023-03-24T09:55:33;98843.13;;;18.66;100.00
19748;BME280;10032;51.386;12.516;2023-03-24T09:58:04;98838.31;;;18.83;100.00
19748;BME280;10032;51.386;12.516;2023-03-24T10:00:32;98838.75;;;19.06;100.00
19748;BME280;10032;51.386;12.516;2023-03-24T10:03:17;98826.66;;;19.19;100.00
19748;BME280;10032;51.386;12.516;2023-03-24T10:06:37;98843.31;;;19.22;100.00
19748;BME280;10032;51.386;12.516;2023-03-24T10:08:46;98835.72;;;19.19;100.00
19748;BME280;10032;51.386;12.516;2023-03-24T10:21:39;98855.88;;;18.62;100.00
19748;BME280;10032;51.386;12.516;2023-03-24T10:24:28;98863.34;;;18.61;100.00
19748;BME280;10032;51.386;12.516;2023-03-24T10:27:36;98847.25;;;18.51;100.00
19748;BME280;10032;51.386;12.516;2023-03-24T10:30:15;98853.06;;;18.50;100.00
19748;BME280;10032;51.386;12.516;2023-03-24T10:32:42;98859.09;;;18.43;100.00
19748;BME280;10032;51.386;12.516;2023-03-24T10:35:34;98856.09;;;18.57;100.00
19748;BME280;10032;51.386;12.516;2023-03-24T10:38:03;98859.06;;;18.72;100.00
19748;BME280;10032;51.386;12.516;2023-03-24T10:40:31;98852.47;;;18.85;100.00
19748;BME280;10032;51.386;12.516;2023-03-24T10:42:58;98850.53;;;19.06;100.00
19748;BME280;10032;51.386;12.516;2023-03-24T10:45:28;98847.94;;;19.30;100.00
19748;BME280;10032;51.386;12.516;2023-03-24T10:47:57;98849.22;;;19.45;100.00
19748;BME280;10032;51.386;12.516;2023-03-24T10:50:25;98862.22;;;19.68;100.00
19748;BME280;10032;51.386;12.516;2023-03-24T10:52:51;98860.13;;;19.65;100.00
19748;BME280;10032;51.386;12.516;2023-03-24T10:55:19;98855.47;;;19.66;100.00
19748;BME280;10032;51.386;12.516;2023-03-24T10:57:47;98857.06;;;19.67;100.00
19748;BME280;10032;51.386;12.516;2023-03-24T11:03:21;98852.56;;;19.50;100.00
19748;BME280;10032;51.386;12.516;2023-03-24T11:05:57;98862.34;;;19.39;100.00
19748;BME280;10032;51.386;12.516;2023-03-24T11:08:39;98849.94;;;19.21;100.00
19748;BME280;10032;51.386;12.516;2023-03-24T11:13:39;98880.25;;;18.63;96.67
19748;BME280;10032;51.386;12.516;2023-03-24T11:16:15;98881.00;;;18.14;95.37
19748;BME280;10032;51.386;12.516;2023-03-24T11:19:00;98891.09;;;17.93;96.02
19748;BME280;10032;51.386;12.516;2023-03-24T11:21:28;98919.19;;;17.73;95.20
19748;BME280;10032;51.386;12.516;2023-03-24T11:23:59;98917.63;;;17.55;95.88
19748;BME280;10032;51.386;12.516;2023-03-24T11:26:34;98928.09;;;17.53;94.06
19748;BME280;10032;51.386;12.516;2023-03-24T11:29:04;98917.47;;;17.43;92.53
19748;BME280;10032;51.386;12.516;2023-03-24T11:31:33;98904.44;;;17.23;92.57
19748;BME280;10032;51.386;12.516;2023-03-24T11:36:52;98912.97;;;17.05;93.15
19748;BME280;10032;51.386;12.516;2023-03-24T11:39:28;98896.34;;;16.93;92.64
19748;BME280;10032;51.386;12.516;2023-03-24T11:47:15;98906.69;;;16.87;95.68
19748;BME280;10032;51.386;12.516;2023-03-24T11:50:12;98906.16;;;16.85;95.96
19748;BME280;10032;51.386;12.516;2023-03-24T11:55:31;98906.38;;;16.97;94.95
19748;BME280;10032;51.386;12.516;2023-03-24T12:00:53;98905.38;;;17.10;94.56
19748;BME280;10032;51.386;12.516;2023-03-24T12:03:44;98910.84;;;17.10;95.63
19748;BME280;10032;51.386;12.516;2023-03-24T12:08:57;98894.28;;;16.90;95.45
19748;BME280;10032;51.386;12.516;2023-03-24T12:14:30;98909.72;;;16.77;97.73
19748;BME280;10032;51.386;12.516;2023-03-24T12:17:09;98923.38;;;16.69;99.02
19748;BME280;10032;51.386;12.516;2023-03-24T12:54:58;98946.13;;;16.00;100.00
19748;BME280;10032;51.386;12.516;2023-03-24T12:57:40;98938.84;;;15.95;100.00
19748;BME280;10032;51.386;12.516;2023-03-24T13:00:12;98960.69;;;15.95;100.00
19748;BME280;10032;51.386;12.516;2023-03-24T13:02:51;98982.69;;;15.90;100.00
19748;BME280;10032;51.386;12.516;2023-03-24T13:05:21;98984.47;;;15.86;100.00
19748;BME280;10032;51.386;12.516;2023-03-24T13:07:51;98998.53;;;15.80;100.00
19748;BME280;10032;51.386;12.516;2023-03-24T13:10:26;98981.72;;;15.64;100.00
19748;BME280;10032;51.386;12.516;2023-03-24T13:13:19;99005.78;;;15.40;100.00
19748;BME280;10032;51.386;12.516;2023-03-24T13:15:48;98994.19;;;15.21;100.00
19748;BME280;10032;51.386;12.516;2023-03-24T13:18:23;98975.84;;;15.13;100.00
19748;BME280;10032;51.386;12.516;2023-03-24T13:31:58;98973.53;;;15.42;100.00
19748;BME280;10032;51.386;12.516;2023-03-24T13:34:40;98971.75;;;15.38;100.00
19748;BME280;10032;51.386;12.516;2023-03-24T13:37:16;98977.31;;;15.33;100.00
19748;BME280;10032;51.386;12.516;2023-03-24T13:39:47;98971.56;;;15.21;100.00
19748;BME280;10032;51.386;12.516;2023-03-24T13:42:34;98987.94;;;15.21;100.00
19748;BME280;10032;51.386;12.516;2023-03-24T13:45:04;98990.78;;;15.16;100.00
19748;BME280;10032;51.386;12.516;2023-03-24T13:48:05;98972.03;;;15.01;100.00
19748;BME280;10032;51.386;12.516;2023-03-24T13:50:46;98960.94;;;14.97;100.00
19748;BME280;10032;51.386;12.516;2023-03-24T13:53:15;98988.44;;;14.87;100.00
19748;BME280;10032;51.386;12.516;2023-03-24T13:55:50;98940.94;;;14.88;100.00
19748;BME280;10032;51.386;12.516;2023-03-24T13:58:22;98913.47;;;14.85;100.00
19748;BME280;10032;51.386;12.516;2023-03-24T14:01:14;98915.28;;;14.89;100.00
19748;BME280;10032;51.386;12.516;2023-03-24T14:04:13;98916.22;;;14.85;100.00
19748;BME280;10032;51.386;12.516;2023-03-24T14:06:52;98933.47;;;14.80;100.00
19748;BME280;10032;51.386;12.516;2023-03-24T14:09:30;98923.38;;;14.81;100.00
19748;BME280;10032;51.386;12.516;2023-03-24T14:14:29;98946.06;;;15.03;100.00
19748;BME280;10032;51.386;12.516;2023-03-24T14:19:31;98941.16;;;15.14;100.00
19748;BME280;10032;51.386;12.516;2023-03-24T14:22:09;98939.31;;;15.23;100.00
19748;BME280;10032;51.386;12.516;2023-03-24T14:24:36;98917.53;;;15.31;100.00
19748;BME280;10032;51.386;12.516;2023-03-24T14:27:31;98924.53;;;15.37;100.00
19748;BME280;10032;51.386;12.516;2023-03-24T14:30:02;98929.41;;;15.27;100.00
19748;BME280;10032;51.386;12.516;2023-03-24T14:32:37;98907.69;;;15.22;100.00
19748;BME280;10032;51.386;12.516;2023-03-24T14:35:03;98921.63;;;15.20;100.00
19748;BME280;10032;51.386;12.516;2023-03-24T14:37:30;98905.25;;;15.20;100.00
19748;BME280;10032;51.386;12.516;2023-03-24T14:39:57;98913.56;;;15.15;100.00
19748;BME280;10032;51.386;12.516;2023-03-24T14:44:59;98944.81;;;15.09;100.00
19748;BME280;10032;51.386;12.516;2023-03-24T14:47:29;98940.50;;;15.08;100.00
19748;BME280;10032;51.386;12.516;2023-03-24T14:49:55;98922.28;;;15.04;100.00
19748;BME280;10032;51.386;12.516;2023-03-24T14:55:01;98933.03;;;15.00;100.00
19748;BME280;10032;51.386;12.516;2023-03-24T14:57:30;98933.47;;;14.94;100.00
19748;BME280;10032;51.386;12.516;2023-03-24T15:02:35;98943.31;;;15.03;100.00
19748;BME280;10032;51.386;12.516;2023-03-24T15:10:52;98948.06;;;15.47;100.00
19748;BME280;10032;51.386;12.516;2023-03-24T15:15:59;98951.03;;;15.37;100.00
19748;BME280;10032;51.386;12.516;2023-03-24T15:18:25;98953.13;;;15.26;100.00
19748;BME280;10032;51.386;12.516;2023-03-24T15:20:52;98954.69;;;15.19;100.00
19748;BME280;10032;51.386;12.516;2023-03-24T15:23:27;98954.00;;;15.13;100.00
19748;BME280;10032;51.386;12.516;2023-03-24T15:25:53;98954.16;;;15.30;100.00
19748;BME280;10032;51.386;12.516;2023-03-24T15:28:25;98952.69;;;15.46;100.00
19748;BME280;10032;51.386;12.516;2023-03-24T15:30:51;98942.53;;;15.60;100.00
19748;BME280;10032;51.386;12.516;2023-03-24T15:33:17;98932.09;;;15.62;100.00
19748;BME280;10032;51.386;12.516;2023-03-24T15:35:44;98928.00;;;15.51;100.00
19748;BME280;10032;51.386;12.516;2023-03-24T15:38:18;98927.00;;;15.47;100.00
19748;BME280;10032;51.386;12.516;2023-03-24T15:41:12;98922.06;;;15.49;100.00